createdAt,value
2023-05-08T00:01:02.018Z,15.50
2023-05-08T00:03:28.717Z,15.50
2023-05-08T00:05:58.104Z,15.50
2023-05-08T00:08:24.778Z,15.51
2023-05-08T00:10:51.198Z,15.53
2023-05-08T00:13:17.672Z,15.53
2023-05-08T00:15:44.160Z,15.53
2023-05-08T00:18:10.612Z,15.52
2023-05-08T00:20:37.788Z,15.51
2023-05-08T00:23:04.645Z,15.51
2023-05-08T00:25:31.979Z,15.50
2023-05-08T00:27:59.418Z,15.49
2023-05-08T00:30:25.953Z,15.47
2023-05-08T00:32:52.766Z,15.45
2023-05-08T00:35:19.917Z,15.43
2023-05-08T00:37:46.470Z,15.41
2023-05-08T00:40:13.204Z,15.40
2023-05-08T00:42:40.085Z,15.41
2023-05-08T00:45:07.141Z,15.41
2023-05-08T00:47:34.414Z,15.39
2023-05-08T00:50:01.234Z,15.38
2023-05-08T00:52:30.842Z,15.32
2023-05-08T00:54:57.765Z,15.30
2023-05-08T00:57:24.507Z,15.27
2023-05-08T00:59:52.486Z,15.25
2023-05-08T01:02:20.926Z,15.24
2023-05-08T01:04:48.429Z,15.22
2023-05-08T01:07:14.923Z,15.22
2023-05-08T01:09:41.369Z,15.22
2023-05-08T01:12:27.215Z,15.20
2023-05-08T01:15:06.073Z,15.16
2023-05-08T01:17:36.825Z,15.13
2023-05-08T01:20:28.488Z,15.13
2023-05-08T01:23:19.629Z,15.10
2023-05-08T01:25:51.957Z,15.08
2023-05-08T01:28:30.540Z,15.05
2023-05-08T01:31:37.963Z,15.05
2023-05-08T01:34:19.447Z,15.00
2023-05-08T01:36:58.351Z,14.99
2023-05-08T01:39:49.896Z,14.95
2023-05-08T01:42:27.583Z,14.93
2023-05-08T01:44:59.298Z,14.90
2023-05-08T01:47:29.781Z,14.88
2023-05-08T01:50:05.532Z,14.86
2023-05-08T01:52:37.073Z,14.86
2023-05-08T01:55:08.569Z,14.86
2023-05-08T01:57:40.182Z,14.85
2023-05-08T02:00:09.241Z,14.84
2023-05-08T02:02:40.202Z,14.82
2023-05-08T02:05:08.710Z,14.83
2023-05-08T02:07:38.148Z,14.80
2023-05-08T02:10:06.195Z,14.78
2023-05-08T02:12:33.581Z,14.76
2023-05-08T02:15:01.793Z,14.75
2023-05-08T02:17:30.199Z,14.73
2023-05-08T02:20:00.043Z,14.70
2023-05-08T02:22:28.026Z,14.70
2023-05-08T02:24:56.418Z,14.67
2023-05-08T02:27:26.372Z,14.67
2023-05-08T02:29:54.484Z,14.65
2023-05-08T02:32:25.060Z,14.63
2023-05-08T02:35:02.406Z,14.61
2023-05-08T02:37:31.083Z,14.59
2023-05-08T02:39:58.802Z,14.58
2023-05-08T02:42:25.536Z,14.56
2023-05-08T02:44:51.997Z,14.55
2023-05-08T02:47:27.577Z,14.55
2023-05-08T02:50:03.765Z,14.53
2023-05-08T02:52:35.289Z,14.52
2023-05-08T02:55:15.010Z,14.51
2023-05-08T02:57:50.895Z,14.49
2023-05-08T03:00:20.256Z,14.45
2023-05-08T03:02:54.560Z,14.43
2023-05-08T03:05:30.438Z,14.40
2023-05-08T03:08:08.034Z,14.41
2023-05-08T03:10:36.388Z,14.38
2023-05-08T03:13:05.937Z,14.34
2023-05-08T03:15:37.534Z,14.32
2023-05-08T03:18:10.317Z,14.30
2023-05-08T03:20:42.803Z,14.28
2023-05-08T03:23:13.235Z,14.26
2023-05-08T03:25:43.712Z,14.25
2023-05-08T03:28:14.080Z,14.24
2023-05-08T03:30:42.123Z,14.22
2023-05-08T03:33:13.046Z,14.20
2023-05-08T03:35:39.950Z,14.17
2023-05-08T03:38:08.511Z,14.16
2023-05-08T03:40:38.989Z,14.16
2023-05-08T03:43:07.784Z,14.16
2023-05-08T03:45:39.806Z,14.14
2023-05-08T03:48:08.100Z,14.12
2023-05-08T03:50:36.919Z,14.13
2023-05-08T03:53:05.568Z,14.12
2023-05-08T03:55:33.294Z,14.13
2023-05-08T03:58:19.886Z,14.10
2023-05-08T04:00:59.447Z,14.10
2023-05-08T04:03:30.634Z,14.09
2023-05-08T04:06:10.008Z,14.09
2023-05-08T04:08:48.285Z,14.08
2023-05-08T04:11:30.400Z,14.06
2023-05-08T04:14:08.359Z,14.08
2023-05-08T04:16:39.818Z,14.07
2023-05-08T04:19:18.028Z,14.06
2023-05-08T04:21:44.904Z,14.08
2023-05-08T04:24:14.651Z,14.08
2023-05-08T04:26:42.755Z,14.08
2023-05-08T04:29:09.559Z,14.09
2023-05-08T04:31:37.437Z,14.11
2023-05-08T04:34:04.525Z,14.14
2023-05-08T04:36:31.886Z,14.13
2023-05-08T04:38:59.835Z,14.16
2023-05-08T04:41:27.003Z,14.19
2023-05-08T04:43:54.368Z,14.21
2023-05-08T04:46:21.037Z,14.22
2023-05-08T04:48:47.597Z,14.24
2023-05-08T04:51:14.093Z,14.24
2023-05-08T04:53:40.604Z,14.26
2023-05-08T04:56:07.095Z,14.26
2023-05-08T04:58:34.260Z,14.29
2023-05-08T05:01:04.664Z,14.30
2023-05-08T05:03:32.543Z,14.29
2023-05-08T05:06:01.531Z,14.27
2023-05-08T05:08:28.236Z,14.27
2023-05-08T05:10:56.045Z,14.29
2023-05-08T05:13:22.667Z,14.31
2023-05-08T05:15:51.372Z,14.32
2023-05-08T05:18:18.371Z,14.35
2023-05-08T05:20:44.929Z,14.34
2023-05-08T05:23:12.154Z,14.40
2023-05-08T05:25:39.001Z,14.41
2023-05-08T05:28:05.514Z,14.44
2023-05-08T05:30:32.177Z,14.47
2023-05-08T05:32:58.793Z,14.51
2023-05-08T05:35:25.701Z,14.55
2023-05-08T05:37:52.967Z,14.58
2023-05-08T05:40:20.224Z,14.62
2023-05-08T05:42:50.848Z,14.63
2023-05-08T05:45:18.354Z,14.61
2023-05-08T05:47:54.030Z,14.60
2023-05-08T05:50:22.612Z,14.61
2023-05-08T05:52:50.296Z,14.63
2023-05-08T05:55:17.159Z,14.64
2023-05-08T05:57:46.141Z,14.63
2023-05-08T06:00:12.993Z,14.56
2023-05-08T06:02:45.436Z,14.58
2023-05-08T06:05:15.222Z,14.63
2023-05-08T06:07:41.859Z,14.67
2023-05-08T06:10:08.581Z,14.73
2023-05-08T06:12:35.654Z,14.76
2023-05-08T06:15:03.200Z,14.79
2023-05-08T06:17:29.695Z,14.82
2023-05-08T06:19:56.557Z,14.84
2023-05-08T06:22:24.177Z,14.86
2023-05-08T06:24:54.249Z,14.88
2023-05-08T06:27:22.163Z,14.90
2023-05-08T06:29:51.648Z,14.90
2023-05-08T06:32:18.303Z,14.94
2023-05-08T06:34:45.113Z,14.95
2023-05-08T06:37:11.732Z,14.95
2023-05-08T06:39:38.331Z,14.96
2023-05-08T06:42:08.172Z,15.00
2023-05-08T06:44:38.091Z,15.01
2023-05-08T06:47:04.488Z,15.02
2023-05-08T06:49:30.941Z,15.01
2023-05-08T06:51:58.122Z,15.01
2023-05-08T06:54:24.888Z,14.98
2023-05-08T06:56:52.782Z,14.98
2023-05-08T06:59:19.174Z,14.95
2023-05-08T07:01:45.744Z,14.94
2023-05-08T07:04:12.409Z,14.98
2023-05-08T07:06:38.861Z,15.02
2023-05-08T07:09:05.286Z,15.07
2023-05-08T07:11:31.753Z,15.11
2023-05-08T07:13:58.141Z,15.14
2023-05-08T07:16:24.649Z,15.16
2023-05-08T07:18:51.163Z,15.19
2023-05-08T07:21:18.731Z,15.22
2023-05-08T07:23:45.124Z,15.25
2023-05-08T07:26:11.679Z,15.27
2023-05-08T07:28:38.090Z,15.27
2023-05-08T07:31:07.095Z,15.31
2023-05-08T07:33:34.546Z,15.31
2023-05-08T07:36:01.420Z,15.34
2023-05-08T07:38:28.039Z,15.37
2023-05-08T07:40:57.519Z,15.39
2023-05-08T07:43:24.325Z,15.40
2023-05-08T07:45:51.066Z,15.41
2023-05-08T07:48:17.528Z,15.43
2023-05-08T07:50:44.601Z,15.46
2023-05-08T07:53:11.196Z,15.49
2023-05-08T07:55:37.557Z,15.50
2023-05-08T07:58:03.961Z,15.50
2023-05-08T08:00:30.459Z,15.50
2023-05-08T08:02:57.458Z,15.54
2023-05-08T08:05:24.233Z,15.57
2023-05-08T08:07:50.644Z,15.59
2023-05-08T08:10:17.248Z,15.62
2023-05-08T08:12:43.722Z,15.66
2023-05-08T08:15:10.714Z,15.71
2023-05-08T08:17:37.698Z,15.73
2023-05-08T08:20:04.757Z,15.76
2023-05-08T08:22:31.156Z,15.78
2023-05-08T08:24:57.629Z,15.81
2023-05-08T08:27:24.136Z,15.82
2023-05-08T08:29:52.521Z,15.86
2023-05-08T08:32:25.231Z,15.88
2023-05-08T08:34:51.774Z,15.89
2023-05-08T08:37:18.707Z,15.92
2023-05-08T08:39:45.260Z,15.95
2023-05-08T08:42:12.288Z,15.95
2023-05-08T08:44:40.060Z,15.95
2023-05-08T08:47:10.305Z,15.95
2023-05-08T08:49:43.423Z,15.96
2023-05-08T08:52:28.607Z,15.97
2023-05-08T08:54:57.331Z,15.97
2023-05-08T08:57:25.583Z,15.96
2023-05-08T08:59:53.856Z,15.98
2023-05-08T09:02:23.694Z,16.00
2023-05-08T09:04:50.175Z,15.99
2023-05-08T09:07:17.882Z,16.01
2023-05-08T09:09:45.833Z,16.02
2023-05-08T09:12:13.665Z,16.05
2023-05-08T09:14:40.230Z,16.06
2023-05-08T09:17:07.011Z,16.08
2023-05-08T09:19:34.509Z,16.09
2023-05-08T09:22:01.396Z,16.13
2023-05-08T09:24:53.540Z,16.19
2023-05-08T09:27:30.264Z,16.22
2023-05-08T09:30:04.477Z,16.25
2023-05-08T09:32:32.476Z,16.24
2023-05-08T09:34:59.577Z,16.27
2023-05-08T09:37:27.550Z,16.30
2023-05-08T09:39:54.851Z,16.32
2023-05-08T09:42:21.337Z,16.29
2023-05-08T09:44:52.842Z,16.34
2023-05-08T09:47:21.811Z,16.34
2023-05-08T09:50:07.689Z,16.41
2023-05-08T09:52:35.609Z,16.44
2023-05-08T09:55:08.709Z,16.45
2023-05-08T09:57:40.381Z,16.47
2023-05-08T10:00:14.543Z,16.49
2023-05-08T10:02:42.258Z,16.48
2023-05-08T10:05:32.064Z,16.50
2023-05-08T10:08:00.031Z,16.55
2023-05-08T10:10:28.466Z,16.61
2023-05-08T10:12:56.296Z,16.65
2023-05-08T10:15:33.493Z,16.71
2023-05-08T10:18:04.735Z,16.73
2023-05-08T10:20:32.977Z,16.75
2023-05-08T10:23:00.786Z,16.78
2023-05-08T10:25:34.664Z,16.77
2023-05-08T10:28:14.540Z,16.79
2023-05-08T10:30:47.385Z,16.82
2023-05-08T10:33:15.585Z,16.89
2023-05-08T10:35:42.394Z,16.89
2023-05-08T10:38:09.773Z,16.89
2023-05-08T10:40:38.138Z,16.89
2023-05-08T10:43:07.191Z,16.87
2023-05-08T10:45:34.455Z,16.90
2023-05-08T10:48:16.136Z,17.00
2023-05-08T10:51:03.026Z,17.07
2023-05-08T10:53:51.576Z,17.12
2023-05-08T10:56:18.068Z,17.12
2023-05-08T10:58:44.501Z,17.07
2023-05-08T11:01:12.451Z,17.09
2023-05-08T11:03:50.590Z,17.09
2023-05-08T11:06:18.856Z,17.15
2023-05-08T11:08:48.024Z,17.18
2023-05-08T11:11:26.879Z,17.20
2023-05-08T11:14:11.284Z,17.23
2023-05-08T11:17:03.858Z,17.29
2023-05-08T11:19:30.849Z,17.34
2023-05-08T11:22:19.205Z,17.48
2023-05-08T11:24:57.982Z,17.64
2023-05-08T11:27:49.222Z,17.75
2023-05-08T11:30:37.820Z,17.84
2023-05-08T11:33:04.700Z,17.91
2023-05-08T11:35:45.175Z,17.93
2023-05-08T11:38:19.257Z,17.98
2023-05-08T11:40:53.101Z,18.03
2023-05-08T11:43:25.053Z,18.06
2023-05-08T11:45:52.551Z,18.03
2023-05-08T11:48:19.612Z,18.13
2023-05-08T11:50:46.918Z,18.22
2023-05-08T11:53:13.544Z,18.21
2023-05-08T11:55:40.111Z,18.18
2023-05-08T11:58:13.401Z,18.18
2023-05-08T12:00:45.004Z,18.15
2023-05-08T12:03:16.752Z,18.13
2023-05-08T12:05:44.010Z,18.10
2023-05-08T12:08:12.236Z,18.06
2023-05-08T12:10:57.477Z,18.04
2023-05-08T12:13:25.583Z,17.99
2023-05-08T12:16:01.202Z,17.95
2023-05-08T12:18:29.134Z,17.99
2023-05-08T12:21:00.790Z,18.09
2023-05-08T12:23:32.258Z,18.16
2023-05-08T12:26:00.079Z,18.32
2023-05-08T12:28:26.612Z,18.47
2023-05-08T12:30:53.887Z,18.57
2023-05-08T12:33:20.795Z,18.65
2023-05-08T12:35:47.662Z,18.74
2023-05-08T12:38:14.362Z,18.74
2023-05-08T12:40:46.524Z,18.76
2023-05-08T12:43:13.036Z,18.83
2023-05-08T12:45:42.992Z,18.85
2023-05-08T12:48:11.866Z,18.83
2023-05-08T12:50:41.272Z,18.81
2023-05-08T12:53:18.325Z,18.83
2023-05-08T12:55:54.549Z,18.82
2023-05-08T12:58:25.125Z,18.77
2023-05-08T13:00:52.736Z,18.74
2023-05-08T13:03:27.667Z,18.74
2023-05-08T13:05:56.430Z,18.75
2023-05-08T13:08:39.153Z,18.77
2023-05-08T13:11:06.799Z,18.79
2023-05-08T13:13:35.318Z,18.80
2023-05-08T13:16:06.942Z,18.78
2023-05-08T13:18:36.535Z,18.74
2023-05-08T13:21:03.625Z,18.70
2023-05-08T13:23:30.618Z,18.70
2023-05-08T13:25:57.124Z,18.72
2023-05-08T13:28:23.530Z,18.76
2023-05-08T13:30:50.077Z,18.83
2023-05-08T13:33:16.462Z,18.92
2023-05-08T13:35:42.945Z,18.99
2023-05-08T13:38:09.352Z,19.14
2023-05-08T13:40:35.810Z,19.23
2023-05-08T13:43:02.318Z,19.24
2023-05-08T13:45:28.901Z,19.27
2023-05-08T13:47:55.424Z,19.32
2023-05-08T13:50:22.166Z,19.43
2023-05-08T13:52:49.028Z,19.42
2023-05-08T13:55:15.997Z,19.48
2023-05-08T13:57:42.814Z,19.51
2023-05-08T14:00:10.470Z,19.43
2023-05-08T14:02:37.604Z,19.42
2023-05-08T14:05:07.191Z,19.40
2023-05-08T14:07:33.768Z,19.47
2023-05-08T14:10:00.607Z,19.50
2023-05-08T14:12:27.076Z,19.52
2023-05-08T14:14:53.473Z,19.56
2023-05-08T14:17:19.880Z,19.57
2023-05-08T14:19:46.361Z,19.59
2023-05-08T14:22:12.864Z,19.59
2023-05-08T14:24:39.707Z,19.59
2023-05-08T14:27:06.270Z,19.57
2023-05-08T14:29:34.090Z,19.58
2023-05-08T14:32:01.018Z,19.61
2023-05-08T14:34:27.578Z,19.56
2023-05-08T14:36:54.054Z,19.56
2023-05-08T14:39:20.698Z,19.57
2023-05-08T14:41:59.727Z,19.61
2023-05-08T14:44:33.661Z,19.61
2023-05-08T14:47:00.319Z,19.61
2023-05-08T14:49:36.564Z,19.61
2023-05-08T14:52:05.577Z,19.63
2023-05-08T14:54:32.466Z,19.62
2023-05-08T14:56:59.003Z,19.57
2023-05-08T14:59:25.560Z,19.56
2023-05-08T15:01:52.054Z,19.54
2023-05-08T15:04:18.582Z,19.52
2023-05-08T15:06:45.019Z,19.51
2023-05-08T15:09:11.520Z,19.49
2023-05-08T15:11:38.038Z,19.44
2023-05-08T15:14:05.213Z,19.36
2023-05-08T15:16:31.871Z,19.32
2023-05-08T15:18:58.382Z,19.24
2023-05-08T15:21:26.759Z,19.17
2023-05-08T15:23:56.134Z,19.08
2023-05-08T15:26:23.021Z,19.00
2023-05-08T15:28:49.724Z,18.97
2023-05-08T15:31:16.422Z,18.94
2023-05-08T15:33:44.948Z,18.86
2023-05-08T15:36:13.418Z,18.80
2023-05-08T15:38:41.018Z,18.74
2023-05-08T15:41:07.572Z,18.74
2023-05-08T15:43:34.021Z,18.69
2023-05-08T15:46:00.596Z,18.63
2023-05-08T15:48:27.121Z,18.60
2023-05-08T15:50:53.585Z,18.59
2023-05-08T15:53:20.087Z,18.59
2023-05-08T15:55:46.538Z,18.56
2023-05-08T15:58:13.020Z,18.56
2023-05-08T16:00:44.696Z,18.54
2023-05-08T16:03:12.315Z,18.55
2023-05-08T16:05:39.372Z,18.56
2023-05-08T16:08:06.591Z,18.53
2023-05-08T16:10:33.103Z,18.55
2023-05-08T16:12:59.663Z,18.54
2023-05-08T16:15:26.113Z,18.56
2023-05-08T16:17:52.536Z,18.55
2023-05-08T16:20:19.065Z,18.58
2023-05-08T16:22:45.590Z,18.60
2023-05-08T16:25:12.229Z,18.61
2023-05-08T16:27:38.900Z,18.63
2023-05-08T16:30:06.194Z,18.65
2023-05-08T16:32:32.635Z,18.60
2023-05-08T16:34:59.209Z,18.51
2023-05-08T16:37:25.705Z,18.46
2023-05-08T16:39:52.159Z,18.48
2023-05-08T16:42:21.507Z,18.50
2023-05-08T16:44:47.909Z,18.49
2023-05-08T16:47:14.635Z,18.49
2023-05-08T16:49:41.286Z,18.47
2023-05-08T16:52:07.933Z,18.45
2023-05-08T16:54:34.406Z,18.46
2023-05-08T16:57:00.843Z,18.45
2023-05-08T16:59:27.327Z,18.45
2023-05-08T17:01:53.809Z,18.45
2023-05-08T17:04:20.283Z,18.45
2023-05-08T17:06:46.718Z,18.46
2023-05-08T17:09:13.116Z,18.47
2023-05-08T17:11:39.579Z,18.44
2023-05-08T17:14:06.205Z,18.40
2023-05-08T17:16:32.601Z,18.33
2023-05-08T17:18:59.717Z,18.27
2023-05-08T17:21:26.133Z,18.24
2023-05-08T17:23:52.603Z,18.24
2023-05-08T17:26:18.980Z,18.27
2023-05-08T17:28:45.333Z,18.25
2023-05-08T17:31:12.130Z,18.23
2023-05-08T17:33:38.570Z,18.20
2023-05-08T17:36:05.219Z,18.19
2023-05-08T17:38:31.786Z,18.17
2023-05-08T17:40:58.232Z,18.14
2023-05-08T17:43:25.804Z,18.10
2023-05-08T17:45:52.316Z,18.06
2023-05-08T17:48:18.736Z,18.04
2023-05-08T17:50:46.777Z,18.02
2023-05-08T17:53:13.244Z,18.04
2023-05-08T17:55:39.600Z,18.06
2023-05-08T17:58:06.001Z,18.07
2023-05-08T18:00:32.415Z,18.06
2023-05-08T18:02:58.949Z,18.05
2023-05-08T18:05:25.454Z,18.01
2023-05-08T18:07:53.788Z,18.02
2023-05-08T18:10:21.042Z,18.03
2023-05-08T18:12:47.471Z,17.99
2023-05-08T18:15:14.040Z,18.00
2023-05-08T18:17:40.971Z,18.00
2023-05-08T18:20:09.297Z,17.98
2023-05-08T18:22:35.716Z,17.97
2023-05-08T18:25:02.637Z,17.96
2023-05-08T18:27:29.060Z,17.96
2023-05-08T18:29:55.586Z,18.00
2023-05-08T18:32:21.965Z,17.94
2023-05-08T18:34:48.379Z,17.93
2023-05-08T18:37:14.756Z,17.91
2023-05-08T18:39:41.277Z,17.85
2023-05-08T18:42:07.943Z,17.85
2023-05-08T18:44:34.375Z,17.86
2023-05-08T18:47:01.696Z,17.87
2023-05-08T18:49:29.162Z,17.87
2023-05-08T18:51:55.649Z,17.85
2023-05-08T18:54:26.268Z,17.83
2023-05-08T18:56:56.456Z,17.79
2023-05-08T18:59:22.905Z,17.77
2023-05-08T19:01:50.576Z,17.77
2023-05-08T19:04:17.175Z,17.78
2023-05-08T19:06:43.660Z,17.75
2023-05-08T19:09:10.160Z,17.71
2023-05-08T19:11:36.513Z,17.68
2023-05-08T19:14:02.909Z,17.65
2023-05-08T19:16:29.511Z,17.67
2023-05-08T19:18:56.221Z,17.62
2023-05-08T19:21:22.656Z,17.61
2023-05-08T19:23:49.096Z,17.58
2023-05-08T19:26:15.589Z,17.57
2023-05-08T19:28:42.093Z,17.53
2023-05-08T19:31:08.475Z,17.52
2023-05-08T19:33:34.912Z,17.54
2023-05-08T19:36:01.355Z,17.53
2023-05-08T19:38:27.757Z,17.52
2023-05-08T19:40:57.744Z,17.51
2023-05-08T19:43:25.802Z,17.50
2023-05-08T19:45:52.291Z,17.49
2023-05-08T19:48:19.927Z,17.47
2023-05-08T19:50:46.531Z,17.46
2023-05-08T19:53:12.949Z,17.44
2023-05-08T19:55:39.429Z,17.44
2023-05-08T19:58:05.873Z,17.43
2023-05-08T20:00:32.323Z,17.41
2023-05-08T20:02:58.899Z,17.41
2023-05-08T20:05:25.611Z,17.40
2023-05-08T20:07:52.025Z,17.39
2023-05-08T20:10:18.415Z,17.38
2023-05-08T20:12:44.906Z,17.38
2023-05-08T20:15:11.803Z,17.37
2023-05-08T20:17:38.334Z,17.31
2023-05-08T20:20:05.501Z,17.32
2023-05-08T20:22:31.928Z,17.31
2023-05-08T20:24:58.328Z,17.27
2023-05-08T20:27:24.709Z,17.28
2023-05-08T20:29:51.887Z,17.28
2023-05-08T20:32:19.117Z,17.26
2023-05-08T20:34:45.681Z,17.26
2023-05-08T20:37:12.185Z,17.24
2023-05-08T20:39:38.602Z,17.22
2023-05-08T20:42:04.969Z,17.14
2023-05-08T20:44:31.330Z,17.07
2023-05-08T20:46:57.822Z,17.05
2023-05-08T20:49:24.568Z,17.04
2023-05-08T20:51:50.978Z,17.04
2023-05-08T20:54:17.439Z,17.03
2023-05-08T20:56:43.869Z,17.04
2023-05-08T20:59:10.321Z,17.01
2023-05-08T21:01:36.892Z,16.98
2023-05-08T21:04:03.546Z,16.95
2023-05-08T21:06:30.029Z,16.90
2023-05-08T21:08:57.692Z,16.87
2023-05-08T21:11:24.059Z,16.84
2023-05-08T21:13:50.476Z,16.83
2023-05-08T21:16:17.217Z,16.83
2023-05-08T21:18:43.728Z,16.82
2023-05-08T21:21:19.922Z,16.83
2023-05-08T21:23:46.306Z,16.82
2023-05-08T21:26:12.687Z,16.82
2023-05-08T21:28:39.141Z,16.84
2023-05-08T21:31:05.749Z,16.82
2023-05-08T21:33:33.746Z,16.79
2023-05-08T21:36:00.383Z,16.80
2023-05-08T21:38:26.888Z,16.78
2023-05-08T21:40:53.674Z,16.77
2023-05-08T21:43:20.156Z,16.75
2023-05-08T21:45:46.587Z,16.75
2023-05-08T21:48:13.028Z,16.74
2023-05-08T21:50:39.452Z,16.72
2023-05-08T21:53:05.825Z,16.73
2023-05-08T21:55:32.593Z,16.73
2023-05-08T21:57:59.045Z,16.73
2023-05-08T22:00:25.569Z,16.72
2023-05-08T22:02:53.151Z,16.70
2023-05-08T22:05:19.723Z,16.69
2023-05-08T22:07:46.531Z,16.67
2023-05-08T22:10:13.853Z,16.65
2023-05-08T22:12:40.266Z,16.64
2023-05-08T22:15:14.902Z,16.60
2023-05-08T22:17:49.565Z,16.59
2023-05-08T22:20:16.110Z,16.58
2023-05-08T22:22:42.601Z,16.57
2023-05-08T22:25:09.269Z,16.55
2023-05-08T22:27:35.753Z,16.55
2023-05-08T22:30:03.948Z,16.56
2023-05-08T22:32:30.401Z,16.51
2023-05-08T22:34:56.916Z,16.52
2023-05-08T22:37:23.410Z,16.51
2023-05-08T22:39:49.816Z,16.51
2023-05-08T22:42:16.572Z,16.51
2023-05-08T22:44:44.161Z,16.51
2023-05-08T22:47:11.842Z,16.49
2023-05-08T22:49:39.979Z,16.49
2023-05-08T22:52:07.649Z,16.48
2023-05-08T22:54:34.281Z,16.47
2023-05-08T22:57:01.602Z,16.45
2023-05-08T22:59:28.076Z,16.44
2023-05-08T23:01:54.451Z,16.42
2023-05-08T23:04:21.469Z,16.39
2023-05-08T23:06:47.958Z,16.36
2023-05-08T23:09:14.431Z,16.33
2023-05-08T23:11:40.879Z,16.34
2023-05-08T23:14:07.324Z,16.33
2023-05-08T23:16:33.751Z,16.33
2023-05-08T23:19:00.325Z,16.29
2023-05-08T23:21:27.768Z,16.24
2023-05-08T23:23:54.358Z,16.24
2023-05-08T23:26:20.824Z,16.25
2023-05-08T23:28:47.229Z,16.25
2023-05-08T23:31:13.663Z,16.25
2023-05-08T23:33:40.224Z,16.25
2023-05-08T23:36:07.002Z,16.25
2023-05-08T23:38:33.466Z,16.25
2023-05-08T23:40:59.887Z,16.25
2023-05-08T23:43:26.326Z,16.24
2023-05-08T23:45:52.771Z,16.23
2023-05-08T23:48:19.181Z,16.23
2023-05-08T23:50:46.380Z,16.23
2023-05-08T23:53:13.142Z,16.23
2023-05-08T23:55:39.618Z,16.23
2023-05-08T23:58:06.177Z,16.22
